createdAt,value
2023-03-10T00:01:21.613Z,98.78
2023-03-10T00:03:48.659Z,99.05
2023-03-10T00:06:22.127Z,99.15
2023-03-10T00:08:49.245Z,99.21
2023-03-10T00:11:31.332Z,99.75
2023-03-10T00:13:58.467Z,99.77
2023-03-10T00:16:34.370Z,99.39
2023-03-10T00:19:00.989Z,99.14
2023-03-10T00:21:30.275Z,99.07
2023-03-10T00:23:57.838Z,99.18
2023-03-10T00:26:31.054Z,99.64
2023-03-10T00:28:58.360Z,99.64
2023-03-10T00:31:27.064Z,99.86
2023-03-10T00:33:55.710Z,100.00
2023-03-10T00:36:24.796Z,100.00
2023-03-10T00:38:56.129Z,100.00
2023-03-10T00:41:31.222Z,100.00
2023-03-10T00:44:01.524Z,100.00
2023-03-10T00:46:33.490Z,100.00
2023-03-10T00:49:02.863Z,100.00
2023-03-10T00:51:29.573Z,100.00
2023-03-10T00:53:56.275Z,100.00
2023-03-10T00:56:25.583Z,100.00
2023-03-10T00:58:55.444Z,100.00
2023-03-10T01:01:35.877Z,100.00
2023-03-10T01:04:05.992Z,100.00
2023-03-10T01:06:33.701Z,100.00
2023-03-10T01:09:01.187Z,100.00
2023-03-10T01:11:29.293Z,100.00
2023-03-10T01:14:02.062Z,100.00
2023-03-10T01:16:29.658Z,99.99
2023-03-10T01:18:57.558Z,99.67
2023-03-10T01:21:30.961Z,99.91
2023-03-10T01:23:58.490Z,99.68
2023-03-10T01:26:28.413Z,99.48
2023-03-10T01:29:05.020Z,99.56
2023-03-10T01:31:38.449Z,99.28
2023-03-10T01:34:05.902Z,98.99
2023-03-10T01:36:32.599Z,98.57
2023-03-10T01:39:00.436Z,98.89
2023-03-10T01:41:26.984Z,98.83
2023-03-10T01:44:03.507Z,98.66
2023-03-10T01:46:44.232Z,98.50
2023-03-10T01:49:22.784Z,98.88
2023-03-10T01:51:55.731Z,98.86
2023-03-10T01:54:26.949Z,99.15
2023-03-10T01:56:56.285Z,99.30
2023-03-10T01:59:24.365Z,99.41
2023-03-10T02:01:52.822Z,99.50
2023-03-10T02:04:33.502Z,99.52
2023-03-10T02:07:03.874Z,99.40
2023-03-10T02:09:33.045Z,99.49
2023-03-10T02:12:00.869Z,99.63
2023-03-10T02:14:27.781Z,99.59
2023-03-10T02:16:57.329Z,99.80
2023-03-10T02:19:38.427Z,99.82
2023-03-10T02:22:13.609Z,99.51
2023-03-10T02:25:17.079Z,99.74
2023-03-10T02:27:44.359Z,99.20
2023-03-10T02:30:15.072Z,99.23
2023-03-10T02:32:49.703Z,99.27
2023-03-10T02:35:16.512Z,99.47
2023-03-10T02:37:43.298Z,99.13
2023-03-10T02:40:34.500Z,98.95
2023-03-10T02:43:10.331Z,98.68
2023-03-10T02:45:41.454Z,99.16
2023-03-10T02:48:14.775Z,99.02
2023-03-10T02:50:43.973Z,99.75
2023-03-10T02:53:23.154Z,99.92
2023-03-10T02:55:49.821Z,99.78
2023-03-10T02:58:20.928Z,99.81
2023-03-10T03:00:48.887Z,99.59
2023-03-10T03:03:19.923Z,99.67
2023-03-10T03:05:53.323Z,99.52
2023-03-10T03:08:23.059Z,99.19
2023-03-10T03:10:50.176Z,98.94
2023-03-10T03:13:19.082Z,98.91
2023-03-10T03:15:48.753Z,99.29
2023-03-10T03:18:15.385Z,99.50
2023-03-10T03:20:56.151Z,99.89
2023-03-10T03:23:22.878Z,99.82
2023-03-10T03:25:49.528Z,99.84
2023-03-10T03:28:19.222Z,99.74
2023-03-10T03:30:55.198Z,99.95
2023-03-10T03:33:22.474Z,100.00
2023-03-10T03:35:49.249Z,99.77
2023-03-10T03:38:20.032Z,99.92
2023-03-10T03:40:46.837Z,99.97
2023-03-10T03:43:14.403Z,99.57
2023-03-10T03:45:41.375Z,99.36
2023-03-10T03:48:08.068Z,98.83
2023-03-10T03:50:34.718Z,98.91
2023-03-10T03:53:01.404Z,99.27
2023-03-10T03:55:29.277Z,99.57
2023-03-10T03:57:56.463Z,99.68
2023-03-10T04:00:31.798Z,99.86
2023-03-10T04:02:59.266Z,100.00
2023-03-10T04:05:26.014Z,100.00
2023-03-10T04:07:57.408Z,99.94
2023-03-10T04:10:24.143Z,99.51
2023-03-10T04:12:51.304Z,99.24
2023-03-10T04:15:17.988Z,99.41
2023-03-10T04:17:44.642Z,98.92
2023-03-10T04:20:14.568Z,99.42
2023-03-10T04:22:42.022Z,99.34
2023-03-10T04:25:09.918Z,99.18
2023-03-10T04:27:40.025Z,99.38
2023-03-10T04:30:09.254Z,99.19
2023-03-10T04:32:36.006Z,99.58
2023-03-10T04:35:02.797Z,99.42
2023-03-10T04:37:29.420Z,99.72
2023-03-10T04:39:57.470Z,99.94
2023-03-10T04:42:30.241Z,99.74
2023-03-10T04:44:56.964Z,100.00
2023-03-10T04:47:23.599Z,100.00
2023-03-10T04:49:50.252Z,100.00
2023-03-10T04:52:17.237Z,100.00
2023-03-10T04:54:46.588Z,100.00
2023-03-10T04:57:19.260Z,100.00
2023-03-10T04:59:45.975Z,99.73
2023-03-10T05:02:13.030Z,99.78
2023-03-10T05:04:39.801Z,99.17
2023-03-10T05:07:12.763Z,99.51
2023-03-10T05:09:39.419Z,99.55
2023-03-10T05:12:07.105Z,98.90
2023-03-10T05:14:36.357Z,98.67
2023-03-10T05:17:03.097Z,98.66
2023-03-10T05:19:29.790Z,98.71
2023-03-10T05:21:56.470Z,99.70
2023-03-10T05:24:23.158Z,99.65
2023-03-10T05:26:50.015Z,99.96
2023-03-10T05:29:16.685Z,99.90
2023-03-10T05:31:46.542Z,99.77
2023-03-10T05:34:17.082Z,99.97
2023-03-10T05:36:47.107Z,100.00
2023-03-10T05:39:13.772Z,100.00
2023-03-10T05:41:40.942Z,99.71
2023-03-10T05:44:07.670Z,99.78
2023-03-10T05:46:34.391Z,99.69
2023-03-10T05:49:02.919Z,99.89
2023-03-10T05:51:29.856Z,99.91
2023-03-10T05:53:56.562Z,99.96
2023-03-10T05:56:23.270Z,99.81
2023-03-10T05:58:51.046Z,99.27
2023-03-10T06:01:18.667Z,99.67
2023-03-10T06:03:45.732Z,99.59
2023-03-10T06:06:13.370Z,99.63
2023-03-10T06:08:43.271Z,99.49
2023-03-10T06:11:10.357Z,99.21
2023-03-10T06:13:37.041Z,99.50
2023-03-10T06:16:18.392Z,99.53
2023-03-10T06:18:45.123Z,99.31
2023-03-10T06:21:14.277Z,99.63
2023-03-10T06:23:41.295Z,99.11
2023-03-10T06:26:11.739Z,99.39
2023-03-10T06:28:40.896Z,99.43
2023-03-10T06:31:18.292Z,99.04
2023-03-10T06:33:45.294Z,98.97
2023-03-10T06:36:13.131Z,99.11
2023-03-10T06:38:40.076Z,99.02
2023-03-10T06:41:12.927Z,98.93
2023-03-10T06:43:40.361Z,99.00
2023-03-10T06:46:10.240Z,98.96
2023-03-10T06:48:38.897Z,99.14
2023-03-10T06:51:07.826Z,99.30
2023-03-10T06:53:34.602Z,98.98
2023-03-10T06:56:10.915Z,99.06
2023-03-10T06:58:38.588Z,98.76
2023-03-10T07:01:06.330Z,98.63
2023-03-10T07:03:35.595Z,98.81
2023-03-10T07:06:02.284Z,98.76
2023-03-10T07:08:30.178Z,98.95
2023-03-10T07:10:57.055Z,99.11
2023-03-10T07:13:23.798Z,99.04
2023-03-10T07:15:53.603Z,99.08
2023-03-10T07:18:20.544Z,99.00
2023-03-10T07:20:53.080Z,99.08
2023-03-10T07:23:20.102Z,99.36
2023-03-10T07:25:54.584Z,99.94
2023-03-10T07:28:21.165Z,99.96
2023-03-10T07:30:48.484Z,100.00
2023-03-10T07:33:18.659Z,100.00
2023-03-10T07:35:46.061Z,99.38
2023-03-10T07:38:12.853Z,99.02
2023-03-10T07:40:40.478Z,99.27
2023-03-10T07:43:09.990Z,99.54
2023-03-10T07:45:38.481Z,99.03
2023-03-10T07:48:05.544Z,99.05
2023-03-10T07:50:32.421Z,98.99
2023-03-10T07:52:59.028Z,99.06
2023-03-10T07:55:27.107Z,98.54
2023-03-10T07:57:56.764Z,98.45
2023-03-10T08:00:23.836Z,98.86
2023-03-10T08:02:50.904Z,99.08
2023-03-10T08:05:17.723Z,98.75
2023-03-10T08:07:44.656Z,98.86
2023-03-10T08:10:12.163Z,98.40
2023-03-10T08:12:39.345Z,98.47
2023-03-10T08:15:14.638Z,98.73
2023-03-10T08:17:41.446Z,98.68
2023-03-10T08:20:09.790Z,98.21
2023-03-10T08:22:41.329Z,98.47
2023-03-10T08:25:08.563Z,99.06
2023-03-10T08:27:35.466Z,98.80
2023-03-10T08:30:02.144Z,98.82
2023-03-10T08:32:34.210Z,99.55
2023-03-10T08:35:01.256Z,99.80
2023-03-10T08:37:27.919Z,99.90
2023-03-10T08:39:56.626Z,99.95
2023-03-10T08:42:23.271Z,100.00
2023-03-10T08:44:50.154Z,100.00
2023-03-10T08:47:16.809Z,100.00
2023-03-10T08:49:46.308Z,100.00
2023-03-10T08:52:14.382Z,100.00
2023-03-10T08:54:41.188Z,100.00
2023-03-10T08:57:07.974Z,100.00
2023-03-10T08:59:34.675Z,100.00
2023-03-10T09:02:01.529Z,100.00
2023-03-10T09:04:28.233Z,100.00
2023-03-10T09:06:54.913Z,100.00
2023-03-10T09:09:24.101Z,100.00
2023-03-10T09:11:50.775Z,100.00
2023-03-10T09:14:20.441Z,100.00
2023-03-10T09:16:47.168Z,99.98
2023-03-10T09:19:14.141Z,99.24
2023-03-10T09:21:43.660Z,99.04
2023-03-10T09:24:12.932Z,99.32
2023-03-10T09:26:44.505Z,99.57
2023-03-10T09:29:12.228Z,99.70
2023-03-10T09:31:39.729Z,100.00
2023-03-10T09:34:08.420Z,99.34
2023-03-10T09:36:37.086Z,99.23
2023-03-10T09:39:05.173Z,99.41
2023-03-10T09:41:37.702Z,99.61
2023-03-10T09:44:16.835Z,99.27
2023-03-10T09:47:09.519Z,99.08
2023-03-10T09:49:42.459Z,97.48
2023-03-10T09:52:27.145Z,97.12
2023-03-10T09:55:25.493Z,97.06
2023-03-10T09:57:56.907Z,96.07
2023-03-10T10:00:35.466Z,95.14
2023-03-10T10:03:24.489Z,95.13
2023-03-10T10:05:53.573Z,96.34
2023-03-10T10:08:28.107Z,96.15
2023-03-10T10:10:58.539Z,95.92
2023-03-10T10:13:32.798Z,96.02
2023-03-10T10:16:34.859Z,95.05
2023-03-10T10:19:24.972Z,93.73
2023-03-10T10:21:54.709Z,94.23
2023-03-10T10:24:24.722Z,91.89
2023-03-10T10:26:54.451Z,91.20
2023-03-10T10:29:37.091Z,92.02
2023-03-10T10:32:04.210Z,91.59
2023-03-10T10:34:32.233Z,90.99
2023-03-10T10:37:03.300Z,92.22
2023-03-10T10:39:42.478Z,91.50
2023-03-10T10:42:25.503Z,93.93
2023-03-10T10:44:58.177Z,95.04
2023-03-10T10:47:27.329Z,95.94
2023-03-10T10:49:56.683Z,96.56
2023-03-10T10:52:29.560Z,96.41
2023-03-10T10:55:02.110Z,96.76
2023-03-10T10:57:33.157Z,96.25
2023-03-10T11:00:20.019Z,97.03
2023-03-10T11:02:46.809Z,96.74
2023-03-10T11:05:20.635Z,96.56
2023-03-10T11:07:47.556Z,95.96
2023-03-10T11:10:27.806Z,96.87
2023-03-10T11:12:57.127Z,96.60
2023-03-10T11:15:41.455Z,97.31
2023-03-10T11:18:19.109Z,98.00
2023-03-10T11:20:54.967Z,98.05
2023-03-10T11:23:40.097Z,97.69
2023-03-10T11:26:27.003Z,97.56
2023-03-10T11:29:09.587Z,96.92
2023-03-10T11:31:50.275Z,96.99
2023-03-10T11:34:36.441Z,97.44
2023-03-10T11:37:13.522Z,98.06
2023-03-10T11:39:50.656Z,98.57
2023-03-10T11:42:45.379Z,98.73
2023-03-10T11:45:18.218Z,97.57
2023-03-10T11:47:59.036Z,97.53
2023-03-10T11:50:49.030Z,97.18
2023-03-10T11:53:38.681Z,98.32
2023-03-10T11:56:08.253Z,97.52
2023-03-10T11:58:47.603Z,97.11
2023-03-10T12:01:20.639Z,97.51
2023-03-10T12:04:22.655Z,96.93
2023-03-10T12:07:01.292Z,96.86
2023-03-10T12:09:33.810Z,95.28
2023-03-10T12:12:03.574Z,96.97
2023-03-10T12:14:31.687Z,96.58
2023-03-10T12:16:59.852Z,97.46
2023-03-10T12:19:26.644Z,95.82
2023-03-10T12:22:11.658Z,95.68
2023-03-10T12:24:46.929Z,95.44
2023-03-10T12:27:13.614Z,96.26
2023-03-10T12:29:44.309Z,95.88
2023-03-10T12:32:47.662Z,96.30
2023-03-10T12:35:29.492Z,95.85
2023-03-10T12:38:28.673Z,92.85
2023-03-10T12:40:59.365Z,92.88
2023-03-10T12:43:49.065Z,93.57
2023-03-10T12:46:21.876Z,91.99
2023-03-10T12:49:02.929Z,91.54
2023-03-10T12:51:37.135Z,93.10
2023-03-10T12:54:31.843Z,92.21
2023-03-10T12:57:25.273Z,90.68
2023-03-10T13:00:00.020Z,91.41
2023-03-10T13:02:37.552Z,92.55
2023-03-10T13:05:07.988Z,91.01
2023-03-10T13:07:35.413Z,89.53
2023-03-10T13:10:05.530Z,91.17
2023-03-10T13:12:57.886Z,91.02
2023-03-10T13:15:32.175Z,89.12
2023-03-10T13:18:20.290Z,90.07
2023-03-10T13:20:47.883Z,89.31
2023-03-10T13:23:25.129Z,89.68
2023-03-10T13:25:56.817Z,90.12
2023-03-10T13:28:24.956Z,89.79
2023-03-10T13:30:51.918Z,89.42
2023-03-10T13:33:24.007Z,89.47
2023-03-10T13:35:52.378Z,89.67
2023-03-10T13:38:21.940Z,90.22
2023-03-10T13:41:03.250Z,90.49
2023-03-10T13:43:35.603Z,89.95
2023-03-10T13:46:04.495Z,91.58
2023-03-10T13:48:32.450Z,90.40
2023-03-10T13:51:32.118Z,88.54
2023-03-10T13:54:38.257Z,88.13
2023-03-10T13:57:26.173Z,89.71
2023-03-10T13:59:54.569Z,89.30
2023-03-10T14:02:24.911Z,89.22
2023-03-10T14:04:54.552Z,89.39
2023-03-10T14:07:28.636Z,89.30
2023-03-10T14:10:08.910Z,90.24
2023-03-10T14:12:38.376Z,90.36
2023-03-10T14:15:14.249Z,90.25
2023-03-10T14:17:46.945Z,90.21
2023-03-10T14:20:27.280Z,89.93
2023-03-10T14:22:53.838Z,88.94
2023-03-10T14:25:25.209Z,88.50
2023-03-10T14:28:04.822Z,88.39
2023-03-10T14:30:33.616Z,89.94
2023-03-10T14:33:01.441Z,89.79
2023-03-10T14:35:29.858Z,89.58
2023-03-10T14:38:06.013Z,89.66
2023-03-10T14:40:38.698Z,90.30
2023-03-10T14:43:05.576Z,89.91
2023-03-10T14:45:38.944Z,89.69
2023-03-10T14:48:19.053Z,90.65
2023-03-10T14:50:48.977Z,91.39
2023-03-10T14:53:18.469Z,90.47
2023-03-10T14:55:57.215Z,90.23
2023-03-10T14:58:28.580Z,91.52
2023-03-10T15:00:55.581Z,92.04
2023-03-10T15:03:22.372Z,91.18
2023-03-10T15:05:49.615Z,91.76
2023-03-10T15:08:17.509Z,92.08
2023-03-10T15:10:50.807Z,92.01
2023-03-10T15:13:19.963Z,91.02
2023-03-10T15:15:48.184Z,91.44
2023-03-10T15:18:21.822Z,90.90
2023-03-10T15:20:48.921Z,91.07
2023-03-10T15:23:19.476Z,91.48
2023-03-10T15:25:46.711Z,92.12
2023-03-10T15:28:14.293Z,92.20
2023-03-10T15:30:41.007Z,93.12
2023-03-10T15:33:07.731Z,94.45
2023-03-10T15:35:35.060Z,94.20
2023-03-10T15:38:02.612Z,94.63
2023-03-10T15:40:31.510Z,95.17
2023-03-10T15:43:00.022Z,95.49
2023-03-10T15:45:28.649Z,95.47
2023-03-10T15:47:55.525Z,96.04
2023-03-10T15:50:34.512Z,96.24
2023-03-10T15:53:04.680Z,96.12
2023-03-10T15:55:31.410Z,96.45
2023-03-10T15:58:01.230Z,96.51
2023-03-10T16:00:28.007Z,96.48
2023-03-10T16:02:55.110Z,97.04
2023-03-10T16:05:22.260Z,97.21
2023-03-10T16:07:48.965Z,96.56
2023-03-10T16:10:19.904Z,96.11
2023-03-10T16:12:46.941Z,96.26
2023-03-10T16:15:17.587Z,96.76
2023-03-10T16:17:44.869Z,97.56
2023-03-10T16:20:17.025Z,97.12
2023-03-10T16:22:43.859Z,96.84
2023-03-10T16:25:15.491Z,96.94
2023-03-10T16:27:44.575Z,97.25
2023-03-10T16:30:14.043Z,97.31
2023-03-10T16:32:45.395Z,97.36
2023-03-10T16:35:18.863Z,97.63
2023-03-10T16:37:45.510Z,97.59
2023-03-10T16:40:12.754Z,97.58
2023-03-10T16:42:43.350Z,97.63
2023-03-10T16:45:10.494Z,97.60
2023-03-10T16:47:37.108Z,97.34
2023-03-10T16:50:04.024Z,97.34
2023-03-10T16:52:30.899Z,97.44
2023-03-10T16:55:00.817Z,97.59
2023-03-10T16:57:27.572Z,98.02
2023-03-10T16:59:54.504Z,97.65
2023-03-10T17:02:21.145Z,97.16
2023-03-10T17:04:48.554Z,97.52
2023-03-10T17:07:15.321Z,97.77
2023-03-10T17:09:42.049Z,97.61
2023-03-10T17:12:11.511Z,97.35
2023-03-10T17:14:41.329Z,96.98
2023-03-10T17:17:08.275Z,97.47
2023-03-10T17:19:37.631Z,97.51
2023-03-10T17:22:04.314Z,97.28
2023-03-10T17:24:31.497Z,97.26
2023-03-10T17:27:01.077Z,97.59
2023-03-10T17:29:27.757Z,97.72
2023-03-10T17:31:54.733Z,98.01
2023-03-10T17:34:21.690Z,98.26
2023-03-10T17:36:51.749Z,98.22
2023-03-10T17:39:23.853Z,98.26
2023-03-10T17:41:59.664Z,98.34
2023-03-10T17:44:26.661Z,98.46
2023-03-10T17:46:56.009Z,98.20
2023-03-10T17:49:22.732Z,98.58
2023-03-10T17:51:49.466Z,98.50
2023-03-10T17:54:23.098Z,98.31
2023-03-10T17:56:50.214Z,98.01
2023-03-10T17:59:17.339Z,98.15
2023-03-10T18:01:45.649Z,97.69
2023-03-10T18:04:12.898Z,97.66
2023-03-10T18:06:39.580Z,97.40
2023-03-10T18:09:08.546Z,97.50
2023-03-10T18:11:35.561Z,97.69
2023-03-10T18:14:10.711Z,97.90
2023-03-10T18:16:40.114Z,97.60
2023-03-10T18:19:11.328Z,97.82
2023-03-10T18:21:38.442Z,97.79
2023-03-10T18:24:05.262Z,98.13
2023-03-10T18:26:32.062Z,98.13
2023-03-10T18:28:59.996Z,98.49
2023-03-10T18:31:28.128Z,98.22
2023-03-10T18:33:55.276Z,98.46
2023-03-10T18:36:24.205Z,98.35
2023-03-10T18:38:51.793Z,98.63
2023-03-10T18:41:23.864Z,98.65
2023-03-10T18:43:53.887Z,98.82
2023-03-10T18:46:21.416Z,98.66
2023-03-10T18:48:48.475Z,98.02
2023-03-10T18:51:15.968Z,98.27
2023-03-10T18:53:42.715Z,98.37
2023-03-10T18:56:10.137Z,98.48
2023-03-10T18:58:36.822Z,98.59
2023-03-10T19:01:03.578Z,98.28
2023-03-10T19:03:30.989Z,97.90
2023-03-10T19:06:00.654Z,98.04
2023-03-10T19:08:27.470Z,98.02
2023-03-10T19:11:01.984Z,97.51
2023-03-10T19:13:29.346Z,97.45
2023-03-10T19:15:56.620Z,98.01
2023-03-10T19:18:24.607Z,97.88
2023-03-10T19:20:57.828Z,97.80
2023-03-10T19:23:24.530Z,97.85
2023-03-10T19:25:51.183Z,98.50
2023-03-10T19:28:17.855Z,98.41
2023-03-10T19:30:44.647Z,98.69
2023-03-10T19:33:14.414Z,98.25
2023-03-10T19:35:44.059Z,98.17
2023-03-10T19:38:13.438Z,98.08
2023-03-10T19:40:40.122Z,98.08
2023-03-10T19:43:07.292Z,98.33
2023-03-10T19:45:33.996Z,97.84
2023-03-10T19:48:01.002Z,97.79
2023-03-10T19:50:28.198Z,97.96
2023-03-10T19:52:56.088Z,97.91
2023-03-10T19:55:26.670Z,98.00
2023-03-10T19:57:56.164Z,97.62
2023-03-10T20:00:27.753Z,97.45
2023-03-10T20:02:58.557Z,97.35
2023-03-10T20:05:29.619Z,97.78
2023-03-10T20:07:56.356Z,97.56
2023-03-10T20:10:23.123Z,97.75
2023-03-10T20:12:51.519Z,98.09
2023-03-10T20:15:18.817Z,98.08
2023-03-10T20:17:51.769Z,98.19
2023-03-10T20:20:20.437Z,98.20
2023-03-10T20:22:52.556Z,97.67
2023-03-10T20:25:21.280Z,97.95
2023-03-10T20:27:52.676Z,98.08
2023-03-10T20:30:27.871Z,98.15
2023-03-10T20:32:56.109Z,98.15
2023-03-10T20:35:23.772Z,98.03
2023-03-10T20:37:50.438Z,97.93
2023-03-10T20:40:22.422Z,97.86
2023-03-10T20:42:59.040Z,98.03
2023-03-10T20:45:25.832Z,97.93
2023-03-10T20:47:54.692Z,97.83
2023-03-10T20:50:21.920Z,98.41
2023-03-10T20:52:49.015Z,98.31
2023-03-10T20:55:30.976Z,98.48
2023-03-10T20:58:00.319Z,98.50
2023-03-10T21:00:28.912Z,98.47
2023-03-10T21:02:57.391Z,98.31
2023-03-10T21:05:26.939Z,98.73
2023-03-10T21:07:54.458Z,98.69
2023-03-10T21:10:26.748Z,98.04
2023-03-10T21:12:53.545Z,98.21
2023-03-10T21:15:23.472Z,97.88
2023-03-10T21:17:53.695Z,98.25
2023-03-10T21:20:23.032Z,98.30
2023-03-10T21:22:50.329Z,98.34
2023-03-10T21:25:21.250Z,98.06
2023-03-10T21:27:52.972Z,98.22
2023-03-10T21:30:21.541Z,97.89
2023-03-10T21:32:48.215Z,98.28
2023-03-10T21:35:24.794Z,97.93
2023-03-10T21:37:56.459Z,97.63
2023-03-10T21:40:24.435Z,97.61
2023-03-10T21:42:51.182Z,97.95
2023-03-10T21:45:24.522Z,98.14
2023-03-10T21:47:51.689Z,98.39
2023-03-10T21:50:19.053Z,98.59
2023-03-10T21:52:49.278Z,98.33
2023-03-10T21:55:28.478Z,98.34
2023-03-10T21:57:55.097Z,98.16
2023-03-10T22:00:23.598Z,98.13
2023-03-10T22:02:52.567Z,98.16
2023-03-10T22:05:21.035Z,98.06
2023-03-10T22:07:48.430Z,98.47
2023-03-10T22:10:21.989Z,98.22
2023-03-10T22:12:49.353Z,98.20
2023-03-10T22:15:19.488Z,98.31
2023-03-10T22:17:46.812Z,97.97
2023-03-10T22:20:20.886Z,97.95
2023-03-10T22:22:48.765Z,97.84
2023-03-10T22:25:16.436Z,97.89
2023-03-10T22:27:47.060Z,98.31
2023-03-10T22:30:16.541Z,98.14
2023-03-10T22:32:43.705Z,98.09
2023-03-10T22:35:12.246Z,98.32
2023-03-10T22:37:39.643Z,98.08
2023-03-10T22:40:10.258Z,98.23
2023-03-10T22:42:41.544Z,98.08
2023-03-10T22:45:32.080Z,97.91
2023-03-10T22:48:01.224Z,98.18
2023-03-10T22:50:32.666Z,98.25
2023-03-10T22:53:04.680Z,98.57
2023-03-10T22:55:35.649Z,99.04
2023-03-10T22:58:04.459Z,99.03
2023-03-10T23:00:34.477Z,98.44
2023-03-10T23:03:01.469Z,98.30
2023-03-10T23:05:33.510Z,98.42
2023-03-10T23:08:00.357Z,98.62
2023-03-10T23:10:32.673Z,98.60
2023-03-10T23:13:01.537Z,98.20
2023-03-10T23:15:32.387Z,98.20
2023-03-10T23:18:03.309Z,98.20
2023-03-10T23:20:49.245Z,98.37
2023-03-10T23:23:19.932Z,98.53
2023-03-10T23:25:48.698Z,98.31
2023-03-10T23:28:16.363Z,98.23
2023-03-10T23:30:45.104Z,98.13
2023-03-10T23:33:20.540Z,98.23
2023-03-10T23:35:50.498Z,98.42
2023-03-10T23:38:21.158Z,98.23
2023-03-10T23:40:50.949Z,98.41
2023-03-10T23:43:18.170Z,98.62
2023-03-10T23:45:45.567Z,98.58
2023-03-10T23:48:27.081Z,98.34
2023-03-10T23:50:56.768Z,98.61
2023-03-10T23:53:23.751Z,98.40
2023-03-10T23:55:51.024Z,98.77
2023-03-10T23:58:19.790Z,98.60
